createdAt,value
2018-01-05T00:00:10.114Z,99.99
2018-01-05T00:01:10.109Z,99.99
2018-01-05T00:02:10.105Z,99.99
2018-01-05T00:03:10.101Z,99.99
2018-01-05T00:04:10.094Z,99.99
2018-01-05T00:05:10.090Z,99.99
2018-01-05T00:06:10.100Z,99.99
2018-01-05T00:07:10.081Z,99.99
2018-01-05T00:08:10.075Z,99.99
2018-01-05T00:09:10.072Z,99.99
2018-01-05T00:10:10.073Z,99.99
2018-01-05T00:11:10.063Z,99.99
2018-01-05T00:12:10.058Z,99.99
2018-01-05T00:13:10.053Z,99.99
2018-01-05T00:14:10.048Z,99.99
2018-01-05T00:15:10.044Z,99.99
2018-01-05T00:16:10.038Z,99.99
2018-01-05T00:17:10.034Z,99.99
2018-01-05T00:18:10.031Z,99.99
2018-01-05T00:19:10.025Z,99.99
2018-01-05T00:20:10.020Z,99.99
2018-01-05T00:21:10.015Z,99.99
2018-01-05T00:22:10.011Z,99.99
2018-01-05T00:23:10.006Z,99.99
2018-01-05T00:24:10.001Z,99.99
2018-01-05T00:25:09.996Z,99.99
2018-01-05T00:26:09.992Z,99.99
2018-01-05T00:27:09.987Z,99.99
2018-01-05T00:28:09.981Z,99.99
2018-01-05T00:29:09.980Z,99.99
2018-01-05T00:30:10.025Z,99.99
2018-01-05T00:31:09.968Z,99.99
2018-01-05T00:32:09.962Z,99.99
2018-01-05T00:33:09.958Z,99.99
2018-01-05T00:34:09.954Z,99.99
2018-01-05T00:35:09.949Z,99.99
2018-01-05T00:36:09.945Z,99.99
2018-01-05T00:37:09.939Z,99.99
2018-01-05T00:38:09.934Z,99.99
2018-01-05T00:39:09.930Z,99.99
2018-01-05T00:40:09.924Z,99.99
2018-01-05T00:41:09.920Z,99.99
2018-01-05T00:42:09.914Z,99.99
2018-01-05T00:43:09.911Z,99.99
2018-01-05T00:44:09.905Z,99.99
2018-01-05T00:45:09.901Z,99.99
2018-01-05T00:46:09.896Z,99.99
2018-01-05T00:47:09.892Z,99.99
2018-01-05T00:48:09.886Z,99.99
2018-01-05T00:49:09.882Z,99.99
2018-01-05T00:50:09.877Z,99.99
2018-01-05T00:51:09.872Z,99.99
2018-01-05T00:52:09.866Z,99.99
2018-01-05T00:53:09.862Z,99.99
2018-01-05T00:54:09.858Z,99.99
2018-01-05T00:55:09.854Z,99.99
2018-01-05T00:56:09.848Z,99.99
2018-01-05T00:57:09.844Z,99.99
2018-01-05T00:58:09.838Z,99.99
2018-01-05T00:59:09.833Z,99.99
2018-01-05T01:00:09.828Z,99.99
2018-01-05T01:01:09.824Z,99.99
2018-01-05T01:02:09.820Z,99.99
2018-01-05T01:03:09.816Z,99.99
2018-01-05T01:04:09.810Z,99.99
2018-01-05T01:05:09.805Z,99.99
2018-01-05T01:06:09.800Z,99.99
2018-01-05T01:07:09.795Z,99.99
2018-01-05T01:08:09.790Z,99.99
2018-01-05T01:09:09.785Z,99.99
2018-01-05T01:10:09.780Z,99.99
2018-01-05T01:11:09.777Z,99.99
2018-01-05T01:12:09.771Z,99.99
2018-01-05T01:13:09.765Z,99.99
2018-01-05T01:14:09.762Z,99.99
2018-01-05T01:15:09.757Z,99.99
2018-01-05T01:16:09.751Z,99.99
2018-01-05T01:17:09.747Z,99.99
2018-01-05T01:18:09.743Z,99.99
2018-01-05T01:19:09.740Z,99.99
2018-01-05T01:20:09.732Z,99.99
2018-01-05T01:21:09.729Z,99.99
2018-01-05T01:22:09.721Z,99.99
2018-01-05T01:23:09.718Z,99.99
2018-01-05T01:24:09.712Z,99.99
2018-01-05T01:25:09.708Z,99.99
2018-01-05T01:26:09.707Z,99.99
2018-01-05T01:27:09.698Z,99.99
2018-01-05T01:28:09.693Z,99.99
2018-01-05T01:29:09.689Z,99.99
2018-01-05T01:30:09.683Z,99.99
2018-01-05T01:31:09.679Z,99.99
2018-01-05T01:32:09.674Z,99.99
2018-01-05T01:33:09.668Z,99.99
2018-01-05T01:34:09.667Z,99.99
2018-01-05T01:35:09.659Z,99.99
2018-01-05T01:36:09.654Z,99.99
2018-01-05T01:37:09.649Z,99.99
2018-01-05T01:38:09.644Z,99.99
2018-01-05T01:39:09.639Z,99.99
2018-01-05T01:40:09.633Z,99.99
2018-01-05T01:41:09.629Z,99.99
2018-01-05T01:42:09.625Z,99.99
2018-01-05T01:43:09.620Z,99.99
2018-01-05T01:44:09.614Z,99.99
2018-01-05T01:45:09.608Z,99.99
2018-01-05T01:46:09.604Z,99.99
2018-01-05T01:47:09.600Z,99.99
2018-01-05T01:48:09.593Z,99.99
2018-01-05T01:49:09.588Z,99.99
2018-01-05T01:50:09.583Z,99.99
2018-01-05T01:51:09.579Z,99.99
2018-01-05T01:52:09.573Z,99.99
2018-01-05T01:53:09.568Z,99.99
2018-01-05T01:54:09.563Z,99.99
2018-01-05T01:55:09.559Z,99.99
2018-01-05T01:56:09.553Z,99.99
2018-01-05T01:57:09.547Z,99.99
2018-01-05T01:58:09.543Z,99.99
2018-01-05T01:59:09.538Z,99.99
2018-01-05T02:00:09.532Z,99.99
2018-01-05T02:01:09.527Z,99.99
2018-01-05T02:02:09.523Z,99.99
2018-01-05T02:03:09.518Z,99.99
2018-01-05T02:04:09.512Z,99.99
2018-01-05T02:05:09.507Z,99.99
2018-01-05T02:06:09.503Z,99.99
2018-01-05T02:07:09.498Z,99.99
2018-01-05T02:08:09.492Z,99.99
2018-01-05T02:09:09.488Z,99.99
2018-01-05T02:10:09.482Z,99.99
2018-01-05T02:11:09.502Z,99.99
2018-01-05T02:12:09.472Z,99.99
2018-01-05T02:13:09.466Z,99.99
2018-01-05T02:14:09.462Z,99.99
2018-01-05T02:15:09.457Z,99.99
2018-01-05T02:16:09.451Z,99.99
2018-01-05T02:17:09.447Z,99.99
2018-01-05T02:18:09.445Z,99.99
2018-01-05T02:19:09.436Z,99.99
2018-01-05T02:20:09.471Z,99.99
2018-01-05T02:21:09.424Z,99.99
2018-01-05T02:22:09.420Z,99.99
2018-01-05T02:23:09.416Z,99.99
2018-01-05T02:24:09.410Z,99.99
2018-01-05T02:25:09.405Z,99.99
2018-01-05T02:26:09.400Z,99.99
2018-01-05T02:27:09.396Z,99.99
2018-01-05T02:28:09.389Z,99.99
2018-01-05T02:29:09.385Z,99.99
2018-01-05T02:30:09.379Z,99.99
2018-01-05T02:31:09.375Z,99.99
2018-01-05T02:32:09.369Z,99.99
2018-01-05T02:33:09.370Z,99.99
2018-01-05T02:34:09.359Z,99.99
2018-01-05T02:35:09.354Z,99.99
2018-01-05T02:36:09.348Z,99.99
2018-01-05T02:37:09.343Z,99.99
2018-01-05T02:38:09.338Z,99.99
2018-01-05T02:39:09.333Z,99.99
2018-01-05T02:40:09.328Z,99.99
2018-01-05T02:41:09.323Z,99.99
2018-01-05T02:42:09.318Z,99.99
2018-01-05T02:43:09.369Z,99.99
2018-01-05T02:44:09.307Z,99.99
2018-01-05T02:45:09.301Z,99.99
2018-01-05T02:46:09.298Z,99.99
2018-01-05T02:47:09.292Z,99.99
2018-01-05T02:48:09.285Z,99.99
2018-01-05T02:49:09.280Z,99.99
2018-01-05T02:50:09.274Z,99.99
2018-01-05T02:51:09.269Z,99.99
2018-01-05T02:52:09.264Z,99.99
2018-01-05T02:53:09.259Z,99.99
2018-01-05T02:54:09.254Z,99.99
2018-01-05T02:55:09.249Z,99.99
2018-01-05T02:56:09.243Z,99.99
2018-01-05T02:57:09.237Z,99.99
2018-01-05T02:58:09.234Z,99.99
2018-01-05T02:59:09.230Z,99.99
2018-01-05T03:00:09.225Z,99.99
2018-01-05T03:01:09.217Z,99.99
2018-01-05T03:02:09.212Z,99.99
2018-01-05T03:03:09.207Z,99.99
2018-01-05T03:04:09.199Z,99.99
2018-01-05T03:05:09.196Z,99.99
2018-01-05T03:06:09.191Z,99.99
2018-01-05T03:07:09.186Z,99.99
2018-01-05T03:08:09.180Z,99.99
2018-01-05T03:09:09.174Z,99.99
2018-01-05T03:10:09.171Z,99.99
2018-01-05T03:11:09.165Z,99.99
2018-01-05T03:12:09.159Z,99.99
2018-01-05T03:13:09.153Z,99.99
2018-01-05T03:14:09.149Z,99.99
2018-01-05T03:15:09.145Z,99.99
2018-01-05T03:16:09.139Z,99.99
2018-01-05T03:17:09.134Z,99.99
2018-01-05T03:18:09.129Z,99.99
2018-01-05T03:19:09.124Z,99.99
2018-01-05T03:20:09.119Z,99.99
2018-01-05T03:21:09.114Z,99.99
2018-01-05T03:22:09.109Z,99.99
2018-01-05T03:23:09.104Z,99.99
2018-01-05T03:24:09.098Z,99.99
2018-01-05T03:25:09.094Z,99.99
2018-01-05T03:26:09.089Z,99.99
2018-01-05T03:27:09.085Z,99.99
2018-01-05T03:28:09.079Z,99.99
2018-01-05T03:29:09.073Z,99.99
2018-01-05T03:30:09.070Z,99.99
2018-01-05T03:31:09.065Z,99.99
2018-01-05T03:32:09.058Z,99.99
2018-01-05T03:33:09.053Z,99.99
2018-01-05T03:34:09.048Z,99.99
2018-01-05T03:35:09.043Z,99.99
2018-01-05T03:36:09.038Z,99.99
2018-01-05T03:37:09.034Z,99.99
2018-01-05T03:38:09.029Z,99.99
2018-01-05T03:39:09.024Z,99.99
2018-01-05T03:40:09.019Z,99.99
2018-01-05T03:41:09.014Z,99.99
2018-01-05T03:42:09.009Z,99.99
2018-01-05T03:43:09.005Z,99.99
2018-01-05T03:44:09.000Z,99.99
2018-01-05T03:45:08.993Z,99.99
2018-01-05T03:46:08.989Z,99.99
2018-01-05T03:47:08.985Z,99.99
2018-01-05T03:48:08.979Z,99.99
2018-01-05T03:49:08.975Z,99.99
2018-01-05T03:50:08.970Z,99.99
2018-01-05T03:51:08.966Z,99.99
2018-01-05T03:52:08.960Z,99.99
2018-01-05T03:53:08.954Z,99.99
2018-01-05T03:54:08.951Z,99.99
2018-01-05T03:55:08.946Z,99.99
2018-01-05T03:56:08.940Z,99.99
2018-01-05T03:57:08.936Z,99.99
2018-01-05T03:58:08.937Z,99.99
2018-01-05T03:59:08.927Z,99.99
2018-01-05T04:00:08.921Z,99.99
2018-01-05T04:01:08.917Z,99.99
2018-01-05T04:02:08.911Z,99.99
2018-01-05T04:03:08.907Z,99.99
2018-01-05T04:04:08.901Z,99.99
2018-01-05T04:05:08.897Z,99.99
2018-01-05T04:06:08.892Z,99.99
2018-01-05T04:07:08.888Z,99.99
2018-01-05T04:08:08.882Z,99.99
2018-01-05T04:09:08.877Z,99.99
2018-01-05T04:10:08.873Z,99.99
2018-01-05T04:11:08.872Z,99.99
2018-01-05T04:12:08.861Z,99.99
2018-01-05T04:13:08.858Z,99.99
2018-01-05T04:14:08.853Z,99.99
2018-01-05T04:15:08.848Z,99.99
2018-01-05T04:16:08.843Z,99.99
2018-01-05T04:17:08.838Z,99.99
2018-01-05T04:18:08.835Z,99.99
2018-01-05T04:19:08.829Z,99.99
2018-01-05T04:20:08.823Z,99.99
2018-01-05T04:21:08.819Z,99.99
2018-01-05T04:22:08.815Z,99.99
2018-01-05T04:23:08.810Z,99.99
2018-01-05T04:24:08.804Z,99.99
2018-01-05T04:25:08.799Z,99.99
2018-01-05T04:26:08.794Z,99.99
2018-01-05T04:27:08.790Z,99.99
2018-01-05T04:28:08.783Z,99.99
2018-01-05T04:29:08.778Z,99.99
2018-01-05T04:30:08.774Z,99.99
2018-01-05T04:31:08.769Z,99.99
2018-01-05T04:32:08.765Z,99.99
2018-01-05T04:33:08.760Z,99.99
2018-01-05T04:34:08.756Z,99.99
2018-01-05T04:35:08.751Z,99.99
2018-01-05T04:36:08.745Z,99.99
2018-01-05T04:37:08.740Z,99.99
2018-01-05T04:38:08.736Z,99.99
2018-01-05T04:39:08.731Z,99.99
2018-01-05T04:40:08.724Z,99.99
2018-01-05T04:41:08.721Z,99.99
2018-01-05T04:42:08.716Z,99.99
2018-01-05T04:43:08.711Z,99.99
2018-01-05T04:44:08.705Z,99.99
2018-01-05T04:45:08.701Z,99.99
2018-01-05T04:46:08.697Z,99.99
2018-01-05T04:47:08.692Z,99.99
2018-01-05T04:48:08.687Z,99.99
2018-01-05T04:49:08.681Z,99.99
2018-01-05T04:50:08.677Z,99.99
2018-01-05T04:51:08.673Z,99.99
2018-01-05T04:52:08.667Z,99.99
2018-01-05T04:53:08.662Z,99.99
2018-01-05T04:54:08.658Z,99.99
2018-01-05T04:55:08.653Z,99.99
2018-01-05T04:56:08.648Z,99.99
2018-01-05T04:57:08.642Z,99.99
2018-01-05T04:58:08.636Z,99.99
2018-01-05T04:59:08.633Z,99.99
2018-01-05T05:00:08.628Z,99.99
2018-01-05T05:01:08.621Z,99.99
2018-01-05T05:02:08.618Z,99.99
2018-01-05T05:03:08.614Z,99.99
2018-01-05T05:04:08.608Z,99.99
2018-01-05T05:05:08.603Z,99.99
2018-01-05T05:06:08.598Z,99.99
2018-01-05T05:07:08.594Z,99.99
2018-01-05T05:08:08.588Z,99.99
2018-01-05T05:09:08.584Z,99.99
2018-01-05T05:10:08.580Z,99.99
2018-01-05T05:11:08.574Z,99.50
2018-01-05T05:12:08.571Z,99.16
2018-01-05T05:13:08.564Z,98.50
2018-01-05T05:14:08.560Z,97.36
2018-01-05T05:15:08.555Z,96.88
2018-01-05T05:16:08.550Z,96.12
2018-01-05T05:17:08.545Z,95.84
2018-01-05T05:18:08.540Z,94.98
2018-01-05T05:19:08.535Z,95.17
2018-01-05T05:20:08.531Z,92.90
2018-01-05T05:21:08.525Z,92.51
2018-01-05T05:22:08.521Z,92.04
2018-01-05T05:23:08.516Z,91.09
2018-01-05T05:24:08.510Z,91.28
2018-01-05T05:25:08.506Z,90.52
2018-01-05T05:26:08.501Z,89.28
2018-01-05T05:27:08.495Z,89.00
2018-01-05T05:28:08.490Z,88.15
2018-01-05T05:29:08.486Z,87.48
2018-01-05T05:30:08.481Z,86.24
2018-01-05T05:31:08.477Z,85.77
2018-01-05T05:32:08.473Z,85.77
2018-01-05T05:33:08.465Z,85.30
2018-01-05T05:34:08.461Z,84.53
2018-01-05T05:35:08.457Z,84.25
2018-01-05T05:36:08.451Z,83.49
2018-01-05T05:37:08.447Z,83.20
2018-01-05T05:38:08.443Z,83.30
2018-01-05T05:39:08.437Z,82.35
2018-01-05T05:40:08.434Z,81.97
2018-01-05T05:41:08.427Z,81.78
2018-01-05T05:42:08.422Z,81.40
2018-01-05T05:43:08.418Z,81.21
2018-01-05T05:44:08.412Z,80.45
2018-01-05T05:45:08.407Z,80.26
2018-01-05T05:46:08.403Z,80.93
2018-01-05T05:47:08.399Z,80.35
2018-01-05T05:48:08.394Z,80.16
2018-01-05T05:49:08.392Z,79.60
2018-01-05T05:50:08.384Z,79.31
2018-01-05T05:51:08.379Z,79.50
2018-01-05T05:52:08.374Z,79.22
2018-01-05T05:53:08.369Z,79.22
2018-01-05T05:54:08.365Z,79.50
2018-01-05T05:55:08.361Z,79.12
2018-01-05T05:56:08.355Z,79.03
2018-01-05T05:57:08.351Z,78.83
2018-01-05T05:58:08.346Z,79.12
2018-01-05T05:59:08.341Z,78.93
2018-01-05T06:00:08.335Z,78.83
2018-01-05T06:01:08.331Z,78.93
2018-01-05T06:02:08.327Z,78.64
2018-01-05T06:03:08.323Z,79.03
2018-01-05T06:04:08.317Z,78.93
2018-01-05T06:05:08.313Z,78.83
2018-01-05T06:06:08.313Z,78.83
2018-01-05T06:07:08.304Z,79.69
2018-01-05T06:08:08.298Z,79.03
2018-01-05T06:09:08.293Z,79.54
2018-01-05T06:10:08.289Z,79.25
2018-01-05T06:11:08.283Z,80.45
2018-01-05T06:12:08.279Z,80.30
2018-01-05T06:13:08.274Z,81.06
2018-01-05T06:14:08.270Z,81.25
2018-01-05T06:15:08.265Z,81.44
2018-01-05T06:16:08.260Z,82.68
2018-01-05T06:17:08.255Z,82.39
2018-01-05T06:18:08.250Z,82.77
2018-01-05T06:19:08.247Z,84.77
2018-01-05T06:20:08.240Z,84.67
2018-01-05T06:21:08.238Z,85.72
2018-01-05T06:22:08.233Z,86.00
2018-01-05T06:23:08.227Z,86.19
2018-01-05T06:24:08.224Z,86.38
2018-01-05T06:25:08.219Z,86.19
2018-01-05T06:26:08.212Z,86.61
2018-01-05T06:27:08.206Z,86.33
2018-01-05T06:28:08.202Z,85.91
2018-01-05T06:29:08.197Z,87.09
2018-01-05T06:30:08.193Z,88.33
2018-01-05T06:31:08.190Z,88.61
2018-01-05T06:32:08.184Z,89.56
2018-01-05T06:33:08.182Z,90.23
2018-01-05T06:34:08.174Z,90.42
2018-01-05T06:35:08.174Z,90.61
2018-01-05T06:36:08.165Z,90.23
2018-01-05T06:37:08.159Z,89.56
2018-01-05T06:38:08.156Z,88.61
2018-01-05T06:39:08.151Z,88.04
2018-01-05T06:40:08.145Z,86.99
2018-01-05T06:41:08.141Z,85.15
2018-01-05T06:42:08.136Z,83.53
2018-01-05T06:43:08.132Z,82.58
2018-01-05T06:44:08.126Z,81.54
2018-01-05T06:45:08.122Z,81.16
2018-01-05T06:46:08.116Z,80.40
2018-01-05T06:47:08.113Z,79.73
2018-01-05T06:48:08.107Z,79.63
2018-01-05T06:49:08.106Z,79.25
2018-01-05T06:50:08.099Z,78.69
2018-01-05T06:51:08.094Z,78.69
2018-01-05T06:52:08.088Z,79.83
2018-01-05T06:53:08.082Z,79.69
2018-01-05T06:54:08.079Z,79.69
2018-01-05T06:55:08.075Z,78.83
2018-01-05T06:56:08.070Z,79.60
2018-01-05T06:57:08.065Z,79.50
2018-01-05T06:58:08.060Z,78.83
2018-01-05T06:59:08.056Z,78.27
2018-01-05T07:00:08.050Z,78.36
2018-01-05T07:01:08.046Z,78.64
2018-01-05T07:02:08.041Z,78.45
2018-01-05T07:03:08.037Z,78.08
2018-01-05T07:04:08.030Z,78.36
2018-01-05T07:05:08.026Z,78.64
2018-01-05T07:06:08.022Z,77.98
2018-01-05T07:07:08.017Z,77.89
2018-01-05T07:08:08.013Z,77.89
2018-01-05T07:09:08.007Z,78.64
2018-01-05T07:10:08.002Z,79.50
2018-01-05T07:11:07.997Z,79.31
2018-01-05T07:12:07.992Z,79.22
2018-01-05T07:13:07.986Z,79.69
2018-01-05T07:14:07.982Z,80.26
2018-01-05T07:15:07.981Z,79.79
2018-01-05T07:16:07.972Z,79.79
2018-01-05T07:17:07.967Z,80.60
2018-01-05T07:18:07.962Z,80.51
2018-01-05T07:19:07.958Z,80.69
2018-01-05T07:20:07.951Z,80.88
2018-01-05T07:21:07.946Z,81.17
2018-01-05T07:22:07.941Z,81.17
2018-01-05T07:23:07.937Z,81.74
2018-01-05T07:24:07.931Z,81.07
2018-01-05T07:25:07.927Z,82.78
2018-01-05T07:26:07.922Z,82.40
2018-01-05T07:27:07.917Z,82.69
2018-01-05T07:28:07.911Z,82.59
2018-01-05T07:29:07.906Z,84.78
2018-01-05T07:30:07.901Z,84.49
2018-01-05T07:31:07.896Z,84.59
2018-01-05T07:32:07.891Z,83.73
2018-01-05T07:33:07.885Z,82.97
2018-01-05T07:34:07.880Z,83.92
2018-01-05T07:35:07.875Z,84.30
2018-01-05T07:36:07.870Z,84.49
2018-01-05T07:37:07.866Z,84.01
2018-01-05T07:38:07.860Z,83.64
2018-01-05T07:39:07.854Z,84.59
2018-01-05T07:40:07.849Z,83.73
2018-01-05T07:41:07.844Z,83.54
2018-01-05T07:42:07.839Z,83.83
2018-01-05T07:43:07.834Z,83.83
2018-01-05T07:44:07.828Z,83.73
2018-01-05T07:45:07.822Z,83.54
2018-01-05T07:46:07.818Z,83.54
2018-01-05T07:47:07.813Z,84.40
2018-01-05T07:48:07.810Z,84.49
2018-01-05T07:49:07.802Z,84.21
2018-01-05T07:50:07.796Z,85.06
2018-01-05T07:51:07.792Z,84.78
2018-01-05T07:52:07.785Z,84.78
2018-01-05T07:53:07.781Z,84.59
2018-01-05T07:54:07.776Z,83.16
2018-01-05T07:55:07.770Z,82.78
2018-01-05T07:56:07.763Z,83.73
2018-01-05T07:57:07.761Z,83.73
2018-01-05T07:58:07.753Z,84.59
2018-01-05T07:59:07.749Z,84.68
2018-01-05T08:00:07.743Z,84.30
2018-01-05T08:01:07.737Z,83.73
2018-01-05T08:02:07.739Z,84.59
2018-01-05T08:03:07.727Z,83.54
2018-01-05T08:04:07.721Z,84.97
2018-01-05T08:05:07.715Z,84.87
2018-01-05T08:06:07.710Z,85.25
2018-01-05T08:07:07.705Z,85.25
2018-01-05T08:08:07.699Z,84.21
2018-01-05T08:09:07.694Z,85.63
2018-01-05T08:10:07.688Z,85.72
2018-01-05T08:11:07.683Z,84.97
2018-01-05T08:12:07.677Z,85.53
2018-01-05T08:13:07.672Z,86.39
2018-01-05T08:14:07.668Z,86.20
2018-01-05T08:15:07.661Z,86.30
2018-01-05T08:16:07.656Z,86.39
2018-01-05T08:17:07.651Z,85.63
2018-01-05T08:18:07.645Z,86.39
2018-01-05T08:19:07.640Z,86.01
2018-01-05T08:20:07.633Z,85.63
2018-01-05T08:21:07.628Z,85.35
2018-01-05T08:22:07.624Z,85.72
2018-01-05T08:23:07.617Z,85.63
2018-01-05T08:24:07.612Z,85.91
2018-01-05T08:25:07.610Z,84.87
2018-01-05T08:26:07.602Z,85.44
2018-01-05T08:27:07.598Z,85.44
2018-01-05T08:28:07.591Z,85.53
2018-01-05T08:29:07.585Z,85.44
2018-01-05T08:30:07.581Z,86.11
2018-01-05T08:31:07.575Z,85.82
2018-01-05T08:32:07.571Z,85.35
2018-01-05T08:33:07.563Z,81.12
2018-01-05T08:34:07.559Z,90.71
2018-01-05T08:35:07.554Z,90.90
2018-01-05T08:36:07.547Z,90.85
2018-01-05T08:37:07.542Z,88.24
2018-01-05T08:38:07.537Z,86.43
2018-01-05T08:39:07.532Z,89.67
2018-01-05T08:40:07.525Z,93.60
2018-01-05T08:41:07.522Z,95.70
2018-01-05T08:42:07.517Z,96.74
2018-01-05T08:43:07.512Z,97.36
2018-01-05T08:44:07.510Z,94.08
2018-01-05T08:45:07.500Z,97.41
2018-01-05T08:46:07.498Z,96.55
2018-01-05T08:47:07.491Z,96.26
2018-01-05T08:48:07.485Z,95.12
2018-01-05T08:49:07.481Z,98.45
2018-01-05T08:50:07.475Z,96.45
2018-01-05T08:51:07.472Z,96.55
2018-01-05T08:52:07.465Z,96.65
2018-01-05T08:53:07.460Z,98.55
2018-01-05T08:54:07.455Z,99.30
2018-01-05T08:55:07.450Z,98.26
2018-01-05T08:56:07.447Z,98.74
2018-01-05T08:57:07.439Z,97.78
2018-01-05T08:58:07.435Z,96.79
2018-01-05T08:59:07.431Z,96.88
2018-01-05T09:00:07.426Z,97.07
2018-01-05T09:01:07.420Z,96.31
2018-01-05T09:02:07.416Z,96.03
2018-01-05T09:03:07.412Z,96.12
2018-01-05T09:04:07.407Z,96.41
2018-01-05T09:05:07.405Z,96.31
2018-01-05T09:06:07.397Z,96.60
2018-01-05T09:07:07.391Z,95.98
2018-01-05T09:08:07.386Z,96.22
2018-01-05T09:09:07.382Z,95.08
2018-01-05T09:10:07.405Z,95.27
2018-01-05T09:11:07.372Z,95.27
2018-01-05T09:12:07.367Z,95.17
2018-01-05T09:13:07.363Z,93.27
2018-01-05T09:14:07.358Z,95.27
2018-01-05T09:15:07.354Z,95.22
2018-01-05T09:16:07.348Z,94.18
2018-01-05T09:17:07.344Z,96.26
2018-01-05T09:18:07.339Z,96.41
2018-01-05T09:19:07.335Z,95.17
2018-01-05T09:20:07.330Z,94.13
2018-01-05T09:21:07.332Z,94.70
2018-01-05T09:22:07.320Z,94.03
2018-01-05T09:23:07.316Z,94.03
2018-01-05T09:24:07.310Z,93.56
2018-01-05T09:25:07.305Z,92.99
2018-01-05T09:26:07.301Z,93.13
2018-01-05T09:27:07.297Z,94.08
2018-01-05T09:28:07.292Z,95.22
2018-01-05T09:29:07.288Z,93.51
2018-01-05T09:30:07.282Z,93.41
2018-01-05T09:31:07.278Z,94.18
2018-01-05T09:32:07.273Z,93.79
2018-01-05T09:33:07.270Z,93.60
2018-01-05T09:34:07.263Z,93.51
2018-01-05T09:35:07.260Z,93.60
2018-01-05T09:36:07.254Z,93.46
2018-01-05T09:37:07.250Z,91.89
2018-01-05T09:38:07.247Z,94.46
2018-01-05T09:39:07.242Z,93.79
2018-01-05T09:40:07.235Z,93.60
2018-01-05T09:41:07.231Z,92.66
2018-01-05T09:42:07.226Z,92.94
2018-01-05T09:43:07.224Z,94.18
2018-01-05T09:44:07.218Z,92.08
2018-01-05T09:45:07.212Z,93.41
2018-01-05T09:46:07.208Z,91.71
2018-01-05T09:47:07.203Z,93.13
2018-01-05T09:48:07.199Z,92.08
2018-01-05T09:49:07.194Z,91.04
2018-01-05T09:50:07.190Z,91.99
2018-01-05T09:51:07.184Z,93.23
2018-01-05T09:52:07.185Z,91.61
2018-01-05T09:53:07.175Z,91.52
2018-01-05T09:54:07.171Z,91.71
2018-01-05T09:55:07.166Z,91.80
2018-01-05T09:56:07.161Z,91.71
2018-01-05T09:57:07.156Z,91.13
2018-01-05T09:58:07.153Z,90.56
2018-01-05T09:59:07.148Z,91.80
2018-01-05T10:00:07.150Z,91.80
2018-01-05T10:01:07.139Z,92.85
2018-01-05T10:02:07.135Z,92.08
2018-01-05T10:03:07.130Z,91.80
2018-01-05T10:04:07.125Z,92.13
2018-01-05T10:05:07.121Z,92.85
2018-01-05T10:06:07.117Z,93.04
2018-01-05T10:07:07.112Z,92.22
2018-01-05T10:08:07.107Z,91.71
2018-01-05T10:09:07.102Z,92.46
2018-01-05T10:10:07.098Z,91.71
2018-01-05T10:11:07.094Z,90.99
2018-01-05T10:12:07.090Z,93.55
2018-01-05T10:13:07.085Z,93.84
2018-01-05T10:14:07.081Z,93.18
2018-01-05T10:15:07.078Z,92.51
2018-01-05T10:16:07.072Z,94.13
2018-01-05T10:17:07.068Z,92.89
2018-01-05T10:18:07.063Z,93.75
2018-01-05T10:19:07.060Z,93.84
2018-01-05T10:20:07.061Z,93.84
2018-01-05T10:21:07.050Z,92.89
2018-01-05T10:22:07.046Z,93.37
2018-01-05T10:23:07.042Z,93.46
2018-01-05T10:24:07.038Z,94.70
2018-01-05T10:25:07.033Z,94.22
2018-01-05T10:26:07.029Z,93.84
2018-01-05T10:27:07.025Z,94.22
2018-01-05T10:28:07.021Z,94.60
2018-01-05T10:29:07.016Z,94.51
2018-01-05T10:30:07.014Z,93.65
2018-01-05T10:31:07.009Z,93.18
2018-01-05T10:32:07.004Z,93.46
2018-01-05T10:33:07.000Z,94.79
2018-01-05T10:34:06.997Z,95.27
2018-01-05T10:35:06.992Z,94.22
2018-01-05T10:36:06.990Z,92.70
2018-01-05T10:37:06.984Z,94.60
2018-01-05T10:38:06.979Z,94.03
2018-01-05T10:39:06.976Z,94.03
2018-01-05T10:40:06.971Z,94.22
2018-01-05T10:41:06.973Z,93.65
2018-01-05T10:42:06.964Z,93.32
2018-01-05T10:43:06.960Z,93.18
2018-01-05T10:44:06.955Z,93.98
2018-01-05T10:45:06.952Z,95.60
2018-01-05T10:46:06.947Z,95.98
2018-01-05T10:47:06.944Z,95.32
2018-01-05T10:48:06.941Z,94.56
2018-01-05T10:49:06.939Z,95.60
2018-01-05T10:50:06.932Z,96.36
2018-01-05T10:51:06.929Z,97.13
2018-01-05T10:52:06.925Z,97.03
2018-01-05T10:53:06.920Z,97.60
2018-01-05T10:54:06.917Z,97.79
2018-01-05T10:55:06.913Z,96.94
2018-01-05T10:56:06.909Z,97.98
2018-01-05T10:57:06.905Z,97.79
2018-01-05T10:58:06.903Z,99.22
2018-01-05T10:59:06.903Z,97.79
2018-01-05T11:00:06.895Z,98.74
2018-01-05T11:01:06.891Z,97.60
2018-01-05T11:02:06.887Z,97.88
2018-01-05T11:03:06.883Z,97.88
2018-01-05T11:04:06.880Z,98.83
2018-01-05T11:05:06.877Z,97.60
2018-01-05T11:06:06.873Z,97.13
2018-01-05T11:07:06.871Z,97.79
2018-01-05T11:08:06.867Z,99.12
2018-01-05T11:09:06.861Z,99.31
2018-01-05T11:10:06.859Z,98.74
2018-01-05T11:11:06.855Z,97.69
2018-01-05T11:12:06.853Z,98.65
2018-01-05T11:13:06.848Z,99.22
2018-01-05T11:14:06.845Z,97.50
2018-01-05T11:15:06.841Z,97.50
2018-01-05T11:16:06.837Z,97.60
2018-01-05T11:17:06.833Z,97.50
2018-01-05T11:18:06.830Z,97.69
2018-01-05T11:19:06.826Z,97.41
2018-01-05T11:20:06.822Z,98.55
2018-01-05T11:21:06.824Z,98.83
2018-01-05T11:22:06.815Z,97.98
2018-01-05T11:23:06.817Z,98.74
2018-01-05T11:24:06.807Z,98.83
2018-01-05T11:25:06.803Z,98.65
2018-01-05T11:26:06.801Z,99.12
2018-01-05T11:27:06.799Z,98.65
2018-01-05T11:28:06.794Z,98.17
2018-01-05T11:29:06.790Z,98.74
2018-01-05T11:30:06.785Z,99.02
2018-01-05T11:31:06.782Z,98.46
2018-01-05T11:32:06.778Z,98.55
2018-01-05T11:33:06.775Z,99.50
2018-01-05T11:34:06.772Z,98.55
2018-01-05T11:35:06.768Z,98.88
2018-01-05T11:36:06.767Z,99.12
2018-01-05T11:37:06.766Z,98.88
2018-01-05T11:38:06.757Z,98.83
2018-01-05T11:39:06.753Z,98.83
2018-01-05T11:40:06.751Z,99.12
2018-01-05T11:41:06.748Z,97.69
2018-01-05T11:42:06.771Z,98.83
2018-01-05T11:43:06.740Z,99.08
2018-01-05T11:44:06.740Z,98.03
2018-01-05T11:45:06.732Z,97.88
2018-01-05T11:46:06.729Z,98.17
2018-01-05T11:47:06.724Z,98.08
2018-01-05T11:48:06.721Z,97.98
2018-01-05T11:49:06.718Z,98.65
2018-01-05T11:50:06.715Z,98.13
2018-01-05T11:51:06.711Z,98.13
2018-01-05T11:52:06.707Z,98.83
2018-01-05T11:53:06.704Z,98.93
2018-01-05T11:54:06.701Z,99.12
2018-01-05T11:55:06.698Z,98.79
2018-01-05T11:56:06.693Z,98.69
2018-01-05T11:57:06.690Z,98.98
2018-01-05T11:58:06.688Z,98.55
2018-01-05T11:59:06.684Z,98.88
2018-01-05T12:00:06.680Z,98.60
2018-01-05T12:01:06.677Z,98.69
2018-01-05T12:02:06.673Z,98.69
2018-01-05T12:03:06.670Z,98.79
2018-01-05T12:04:06.667Z,98.88
2018-01-05T12:05:06.662Z,98.60
2018-01-05T12:06:06.659Z,99.08
2018-01-05T12:07:06.655Z,99.27
2018-01-05T12:08:06.651Z,99.65
2018-01-05T12:09:06.652Z,99.65
2018-01-05T12:10:06.646Z,98.88
2018-01-05T12:11:06.643Z,99.17
2018-01-05T12:12:06.643Z,99.55
2018-01-05T12:13:06.636Z,99.65
2018-01-05T12:14:06.633Z,98.98
2018-01-05T12:15:06.631Z,98.98
2018-01-05T12:16:06.626Z,99.17
2018-01-05T12:17:06.622Z,99.17
2018-01-05T12:18:06.620Z,99.65
2018-01-05T12:19:06.617Z,99.84
2018-01-05T12:20:06.613Z,99.79
2018-01-05T12:21:06.610Z,99.69
2018-01-05T12:22:06.607Z,99.22
2018-01-05T12:23:06.604Z,99.69
2018-01-05T12:24:06.600Z,99.13
2018-01-05T12:25:06.597Z,99.89
2018-01-05T12:26:06.595Z,99.99
2018-01-05T12:27:06.594Z,99.84
2018-01-05T12:28:06.589Z,99.65
2018-01-05T12:29:06.585Z,99.36
2018-01-05T12:30:06.583Z,99.17
2018-01-05T12:31:06.580Z,98.13
2018-01-05T12:32:06.576Z,98.88
2018-01-05T12:33:06.574Z,99.36
2018-01-05T12:34:06.571Z,99.99
2018-01-05T12:35:06.568Z,99.17
2018-01-05T12:36:06.563Z,99.36
2018-01-05T12:37:06.568Z,98.60
2018-01-05T12:38:06.559Z,98.88
2018-01-05T12:39:06.557Z,98.98
2018-01-05T12:40:06.556Z,98.79
2018-01-05T12:41:06.554Z,98.69
2018-01-05T12:42:06.550Z,99.17
2018-01-05T12:43:06.545Z,98.60
2018-01-05T12:44:06.540Z,98.50
2018-01-05T12:45:06.538Z,98.60
2018-01-05T12:46:06.536Z,98.50
2018-01-05T12:47:06.533Z,98.03
2018-01-05T12:48:06.529Z,99.08
2018-01-05T12:49:06.526Z,99.84
2018-01-05T12:50:06.525Z,98.88
2018-01-05T12:51:06.522Z,98.79
2018-01-05T12:52:06.516Z,98.13